createdAt,value
2023-03-17T00:01:47.923Z,1.27
2023-03-17T00:04:49.676Z,1.25
2023-03-17T00:07:52.384Z,0.97
2023-03-17T00:13:55.469Z,0.70
2023-03-17T00:16:57.026Z,0.95
2023-03-17T00:19:58.580Z,1.10
2023-03-17T00:23:00.329Z,1.92
2023-03-17T00:26:02.516Z,0.70
2023-03-17T00:29:05.992Z,1.02
2023-03-17T00:32:15.828Z,1.10
2023-03-17T00:35:19.268Z,0.85
2023-03-17T00:38:21.474Z,1.40
2023-03-17T00:41:23.584Z,0.88
2023-03-17T00:44:25.515Z,1.38
2023-03-17T00:47:27.011Z,1.08
2023-03-17T00:50:28.889Z,0.90
2023-03-17T00:53:30.776Z,1.38
2023-03-17T00:56:32.278Z,0.80
2023-03-17T00:59:39.154Z,1.30
2023-03-17T01:02:41.143Z,1.67
2023-03-17T01:05:42.635Z,1.85
2023-03-17T01:08:45.386Z,1.83
2023-03-17T01:11:46.974Z,1.50
2023-03-17T01:14:48.462Z,1.10
2023-03-17T01:17:50.576Z,1.13
2023-03-17T01:20:53.062Z,1.45
2023-03-17T01:23:55.064Z,1.25
2023-03-17T01:26:56.502Z,1.45
2023-03-17T01:29:57.961Z,1.40
2023-03-17T01:32:59.905Z,1.55
2023-03-17T01:36:01.473Z,1.33
2023-03-17T01:39:05.255Z,0.90
2023-03-17T01:42:07.231Z,0.98
2023-03-17T01:45:47.125Z,0.90
2023-03-17T01:49:07.125Z,0.95
2023-03-17T01:52:16.104Z,1.58
2023-03-17T01:55:17.740Z,1.25
2023-03-17T01:58:19.688Z,1.15
2023-03-17T02:01:24.115Z,1.08
2023-03-17T02:04:26.824Z,0.93
2023-03-17T02:10:30.016Z,1.00
2023-03-17T02:13:31.903Z,0.93
2023-03-17T02:16:33.366Z,1.02
2023-03-17T02:19:35.250Z,0.93
2023-03-17T02:22:37.345Z,1.02
2023-03-17T02:25:39.875Z,1.00
2023-03-17T02:28:41.328Z,1.63
2023-03-17T02:31:43.941Z,0.88
2023-03-17T02:34:48.605Z,0.90
2023-03-17T02:37:50.064Z,1.00
2023-03-17T02:40:51.890Z,0.95
2023-03-17T02:43:53.737Z,1.17
2023-03-17T02:46:55.202Z,1.30
2023-03-17T02:49:56.713Z,0.93
2023-03-17T02:52:58.452Z,0.90
2023-03-17T02:55:59.981Z,0.97
2023-03-17T02:59:01.449Z,2.10
2023-03-17T03:02:02.960Z,1.80
2023-03-17T03:05:05.530Z,2.10
2023-03-17T03:08:07.118Z,1.45
2023-03-17T03:11:08.627Z,1.45
2023-03-17T03:14:10.323Z,1.05
2023-03-17T03:17:11.858Z,0.95
2023-03-17T03:20:14.485Z,1.08
2023-03-17T03:26:17.818Z,11.50
2023-03-17T03:29:19.330Z,34.85
2023-03-17T03:32:20.805Z,48.95
2023-03-17T03:35:22.305Z,35.33
2023-03-17T03:38:23.799Z,17.40
2023-03-17T03:41:25.474Z,61.22
2023-03-17T03:44:26.988Z,31.77
2023-03-17T03:47:28.458Z,70.88
2023-03-17T03:50:30.171Z,36.17
2023-03-17T03:53:31.876Z,25.33
2023-03-17T03:56:33.330Z,7.20
2023-03-17T03:59:34.798Z,2.22
2023-03-17T04:02:36.306Z,1.65
2023-03-17T04:05:37.770Z,1.60
2023-03-17T04:08:39.262Z,1.33
2023-03-17T04:11:40.779Z,1.52
2023-03-17T04:14:42.557Z,1.67
2023-03-17T04:17:44.132Z,17.57
2023-03-17T04:20:46.089Z,43.92
2023-03-17T04:23:50.021Z,33.63
2023-03-17T04:26:51.977Z,14.52
2023-03-17T04:29:53.754Z,28.63
2023-03-17T04:32:55.238Z,15.73
2023-03-17T04:35:56.965Z,8.18
2023-03-17T04:38:58.496Z,6.33
2023-03-17T04:41:59.944Z,12.80
2023-03-17T04:45:01.409Z,4.55
2023-03-17T04:48:02.905Z,6.85
2023-03-17T04:51:04.610Z,4.15
2023-03-17T04:54:06.709Z,1.73
2023-03-17T04:57:08.931Z,0.90
2023-03-17T05:00:12.543Z,1.15
2023-03-17T05:03:26.034Z,1.42
2023-03-17T05:06:28.464Z,1.35
2023-03-17T05:09:29.962Z,0.70
2023-03-17T05:12:31.551Z,0.85
2023-03-17T05:15:33.023Z,1.25
2023-03-17T05:18:34.541Z,1.70
2023-03-17T05:21:35.973Z,1.83
2023-03-17T05:24:37.488Z,0.93
2023-03-17T05:27:39.426Z,1.00
2023-03-17T05:30:41.456Z,1.17
2023-03-17T05:33:43.479Z,2.25
2023-03-17T05:36:44.944Z,2.13
2023-03-17T05:39:46.407Z,1.95
2023-03-17T05:42:47.859Z,1.90
2023-03-17T05:45:50.605Z,1.77
2023-03-17T05:48:52.372Z,1.75
2023-03-17T05:51:55.127Z,1.58
2023-03-17T05:57:58.284Z,1.80
2023-03-17T06:00:59.928Z,1.60
2023-03-17T06:04:01.743Z,1.63
2023-03-17T06:07:03.463Z,1.63
2023-03-17T06:10:05.209Z,2.17
2023-03-17T06:13:06.698Z,1.83
2023-03-17T06:16:08.468Z,2.17
2023-03-17T06:19:10.185Z,1.83
2023-03-17T06:22:11.988Z,2.33
2023-03-17T06:25:14.125Z,1.33
2023-03-17T06:28:15.593Z,0.93
2023-03-17T06:31:17.846Z,1.45
2023-03-17T06:34:19.771Z,1.27
2023-03-17T06:37:21.427Z,0.90
2023-03-17T06:40:22.901Z,1.83
2023-03-17T06:43:25.039Z,3.80
2023-03-17T06:46:27.097Z,3.13
2023-03-17T06:49:28.694Z,3.22
2023-03-17T06:52:30.178Z,3.55
2023-03-17T06:55:32.010Z,3.03
2023-03-17T06:58:33.738Z,3.65
2023-03-17T07:01:35.251Z,3.28
2023-03-17T07:04:38.002Z,4.93
2023-03-17T07:07:40.070Z,4.78
2023-03-17T07:10:43.198Z,4.32
2023-03-17T07:13:45.283Z,4.47
2023-03-17T07:16:48.404Z,4.63
2023-03-17T07:19:50.043Z,5.15
2023-03-17T07:22:51.613Z,21.13
2023-03-17T07:25:53.105Z,17.63
2023-03-17T07:28:54.644Z,7.45
2023-03-17T07:31:56.149Z,5.78
2023-03-17T07:34:58.263Z,4.82
2023-03-17T07:38:00.013Z,4.72
2023-03-17T07:41:01.587Z,4.60
2023-03-17T07:44:04.118Z,8.00
2023-03-17T07:47:05.847Z,6.68
2023-03-17T07:50:07.684Z,7.80
2023-03-17T07:53:09.219Z,10.07
2023-03-17T07:56:10.980Z,7.25
2023-03-17T07:59:12.431Z,4.53
2023-03-17T08:02:15.834Z,5.32
2023-03-17T08:05:17.488Z,6.07
2023-03-17T08:08:21.350Z,5.93
2023-03-17T08:11:23.383Z,4.05
2023-03-17T08:14:24.974Z,3.17
2023-03-17T08:17:27.449Z,2.30
2023-03-17T08:20:29.956Z,2.30
2023-03-17T08:23:32.320Z,2.13
2023-03-17T08:29:35.937Z,1.80
2023-03-17T08:32:37.995Z,1.75
2023-03-17T08:35:41.554Z,1.25
2023-03-17T08:38:43.559Z,1.55
2023-03-17T08:41:45.034Z,1.75
2023-03-17T08:44:46.560Z,1.10
2023-03-17T08:47:48.237Z,1.30
2023-03-17T08:50:49.701Z,1.63
2023-03-17T08:53:51.661Z,7.97
2023-03-17T08:56:53.313Z,5.15
2023-03-17T08:59:54.797Z,3.72
2023-03-17T09:02:58.287Z,3.03
2023-03-17T09:05:59.889Z,4.22
2023-03-17T09:09:01.421Z,3.28
2023-03-17T09:12:05.229Z,2.55
2023-03-17T09:15:07.696Z,2.35
2023-03-17T09:18:09.318Z,3.20
2023-03-17T09:21:13.876Z,2.60
2023-03-17T09:24:15.375Z,2.10
2023-03-17T09:27:16.862Z,2.15
2023-03-17T09:30:18.647Z,1.95
2023-03-17T09:33:20.175Z,1.45
2023-03-17T09:36:21.667Z,1.70
2023-03-17T09:39:24.109Z,1.92
2023-03-17T09:42:56.521Z,2.00
2023-03-17T09:45:57.973Z,1.90
2023-03-17T09:49:01.572Z,1.90
2023-03-17T09:52:03.529Z,1.50
2023-03-17T09:58:08.935Z,1.58
2023-03-17T10:01:10.461Z,1.77
2023-03-17T10:04:12.041Z,1.90
2023-03-17T10:07:13.717Z,1.65
2023-03-17T10:10:29.132Z,1.52
2023-03-17T10:13:59.559Z,1.58
2023-03-17T10:17:05.703Z,2.22
2023-03-17T10:20:15.746Z,2.38
2023-03-17T10:23:19.341Z,2.03
2023-03-17T10:26:31.101Z,2.25
2023-03-17T10:29:32.685Z,1.98
2023-03-17T10:32:36.162Z,2.10
2023-03-17T10:35:39.396Z,2.47
2023-03-17T10:38:41.052Z,2.45
2023-03-17T10:42:07.072Z,2.47
2023-03-17T10:45:16.961Z,2.78
2023-03-17T10:48:19.206Z,2.53
2023-03-17T10:51:40.528Z,3.35
2023-03-17T10:54:42.022Z,2.47
2023-03-17T10:58:04.058Z,2.53
2023-03-17T11:01:20.209Z,2.50
2023-03-17T11:04:42.520Z,2.40
2023-03-17T11:07:45.253Z,2.35
2023-03-17T11:10:46.831Z,1.90
2023-03-17T11:13:48.808Z,2.05
2023-03-17T11:16:59.002Z,1.73
2023-03-17T11:20:11.558Z,1.90
2023-03-17T11:23:38.680Z,1.75
2023-03-17T11:26:46.101Z,2.05
2023-03-17T11:30:14.857Z,2.00
2023-03-17T11:33:59.984Z,2.38
2023-03-17T11:37:20.028Z,2.20
2023-03-17T11:40:32.109Z,2.63
2023-03-17T11:44:05.672Z,2.13
2023-03-17T11:47:10.042Z,2.00
2023-03-17T11:50:23.366Z,2.20
2023-03-17T11:53:54.698Z,2.03
2023-03-17T11:56:56.693Z,2.00
2023-03-17T12:00:21.440Z,1.75
2023-03-17T12:03:32.948Z,1.75
2023-03-17T12:06:36.372Z,2.30
2023-03-17T12:09:46.342Z,1.67
2023-03-17T12:12:51.719Z,1.67
2023-03-17T12:16:05.431Z,2.03
2023-03-17T12:19:25.080Z,2.00
2023-03-17T12:22:32.785Z,2.13
2023-03-17T12:25:37.474Z,2.30
2023-03-17T12:28:44.303Z,2.25
2023-03-17T12:31:48.856Z,2.75
2023-03-17T12:35:03.201Z,2.20
2023-03-17T12:38:13.489Z,2.13
2023-03-17T12:41:39.011Z,15.30
2023-03-17T12:45:22.287Z,2.03
2023-03-17T12:48:38.596Z,3.10
2023-03-17T12:51:48.426Z,2.50
2023-03-17T12:54:51.562Z,2.10
2023-03-17T12:58:02.086Z,2.00
2023-03-17T13:01:23.066Z,2.10
2023-03-17T13:04:27.257Z,2.08
2023-03-17T13:07:46.779Z,2.17
2023-03-17T13:10:48.692Z,2.22
2023-03-17T13:14:15.318Z,2.40
2023-03-17T13:17:16.905Z,2.28
2023-03-17T13:20:19.584Z,2.00
2023-03-17T13:23:21.972Z,2.60
2023-03-17T13:26:59.358Z,2.67
2023-03-17T13:30:25.767Z,2.40
2023-03-17T13:33:30.673Z,2.13
2023-03-17T13:36:53.683Z,2.17
2023-03-17T13:40:11.272Z,1.75
2023-03-17T13:43:31.747Z,1.80
2023-03-17T13:46:34.299Z,1.83
2023-03-17T13:49:36.702Z,2.13
2023-03-17T13:52:41.387Z,2.13
2023-03-17T13:55:43.456Z,2.03
2023-03-17T13:59:11.733Z,1.77
2023-03-17T14:02:17.837Z,1.77
2023-03-17T14:05:27.539Z,1.80
2023-03-17T14:08:31.772Z,1.60
2023-03-17T14:11:35.850Z,1.83
2023-03-17T14:14:49.150Z,1.83
2023-03-17T14:17:59.361Z,1.70
2023-03-17T14:21:02.786Z,2.42
2023-03-17T14:24:21.850Z,3.58
2023-03-17T14:27:24.149Z,2.75
2023-03-17T14:30:28.805Z,2.50
2023-03-17T14:33:38.000Z,2.30
2023-03-17T14:36:39.616Z,1.83
2023-03-17T14:42:46.652Z,1.50
2023-03-17T14:45:59.608Z,1.60
2023-03-17T14:49:03.068Z,1.73
2023-03-17T14:52:04.671Z,1.90
2023-03-17T14:58:10.175Z,1.60
2023-03-17T15:01:39.676Z,1.60
2023-03-17T15:04:53.517Z,1.88
2023-03-17T15:07:55.428Z,1.48
2023-03-17T15:11:00.537Z,1.80
2023-03-17T15:14:27.850Z,1.60
2023-03-17T15:17:33.118Z,1.65
2023-03-17T15:20:35.463Z,1.70
2023-03-17T15:23:39.780Z,1.63
2023-03-17T15:26:42.256Z,1.70
2023-03-17T15:29:44.552Z,2.25
2023-03-17T15:32:51.787Z,1.98
2023-03-17T15:35:53.527Z,1.60
2023-03-17T15:41:56.881Z,1.40
2023-03-17T15:45:01.166Z,1.50
2023-03-17T15:48:02.845Z,1.70
2023-03-17T15:51:05.065Z,1.48
2023-03-17T15:54:06.900Z,2.33
2023-03-17T16:00:17.301Z,1.73
2023-03-17T16:03:24.863Z,2.00
2023-03-17T16:06:26.636Z,2.13
2023-03-17T16:12:29.765Z,5.87
2023-03-17T16:15:32.592Z,22.63
2023-03-17T16:18:36.125Z,2.92
2023-03-17T16:21:37.806Z,2.53
2023-03-17T16:24:39.466Z,2.72
2023-03-17T16:27:40.924Z,2.80
2023-03-17T16:30:43.045Z,3.08
2023-03-17T16:33:44.684Z,3.08
2023-03-17T16:36:46.602Z,3.00
2023-03-17T16:42:53.855Z,2.22
2023-03-17T16:45:57.377Z,1.98
2023-03-17T16:48:58.956Z,2.70
2023-03-17T16:52:00.542Z,2.97
2023-03-17T16:55:02.514Z,1.90
2023-03-17T17:01:11.968Z,2.95
2023-03-17T17:04:13.601Z,4.72
2023-03-17T17:07:15.584Z,3.95
2023-03-17T17:13:19.420Z,5.35
2023-03-17T17:16:29.554Z,9.90
2023-03-17T17:19:31.141Z,3.70
2023-03-17T17:22:32.847Z,7.47
2023-03-17T17:25:34.472Z,3.55
2023-03-17T17:28:36.356Z,4.15
2023-03-17T17:31:38.079Z,4.28
2023-03-17T17:34:39.672Z,6.05
2023-03-17T17:37:41.426Z,9.27
2023-03-17T17:40:42.994Z,10.82
2023-03-17T17:43:46.447Z,6.60
2023-03-17T17:46:48.083Z,4.70
2023-03-17T17:49:49.796Z,3.00
2023-03-17T17:52:51.523Z,2.53
2023-03-17T17:55:53.136Z,2.63
2023-03-17T17:58:54.686Z,3.25
2023-03-17T18:01:56.331Z,5.78
2023-03-17T18:04:58.363Z,7.97
2023-03-17T18:11:01.633Z,8.52
2023-03-17T18:14:03.244Z,7.25
2023-03-17T18:17:04.930Z,5.20
2023-03-17T18:20:06.993Z,3.05
2023-03-17T18:23:08.537Z,2.70
2023-03-17T18:26:10.474Z,3.75
2023-03-17T18:29:12.387Z,2.42
2023-03-17T18:32:13.919Z,1.98
2023-03-17T18:35:17.433Z,2.28
2023-03-17T18:38:19.081Z,2.60
2023-03-17T18:41:20.739Z,2.00
2023-03-17T18:44:24.989Z,3.55
2023-03-17T18:47:26.868Z,3.63
2023-03-17T18:50:28.668Z,3.50
2023-03-17T18:53:30.938Z,5.47
2023-03-17T18:59:33.903Z,2.90
2023-03-17T19:02:35.740Z,3.30
2023-03-17T19:05:38.178Z,3.63
2023-03-17T19:08:39.814Z,2.92
2023-03-17T19:11:41.375Z,2.42
2023-03-17T19:14:42.945Z,2.58
2023-03-17T19:17:44.493Z,2.33
2023-03-17T19:20:46.242Z,2.57
2023-03-17T19:23:47.910Z,3.65
2023-03-17T19:26:49.460Z,2.22
2023-03-17T19:29:51.055Z,2.43
2023-03-17T19:32:52.638Z,3.53
2023-03-17T19:35:56.143Z,3.78
2023-03-17T19:38:57.804Z,3.30
2023-03-17T19:41:59.645Z,2.50
2023-03-17T19:45:01.245Z,3.05
2023-03-17T19:48:02.817Z,2.63
2023-03-17T19:51:04.530Z,3.38
2023-03-17T19:54:06.116Z,3.08
2023-03-17T19:57:07.648Z,2.63
2023-03-17T20:00:11.112Z,2.43
2023-03-17T20:03:14.344Z,2.90
2023-03-17T20:06:16.184Z,4.05
2023-03-17T20:09:18.112Z,3.42
2023-03-17T20:12:20.710Z,2.63
2023-03-17T20:15:22.351Z,3.28
2023-03-17T20:18:23.996Z,2.50
2023-03-17T20:21:25.834Z,3.05
2023-03-17T20:24:29.196Z,3.85
2023-03-17T20:27:32.118Z,4.20
2023-03-17T20:30:33.802Z,3.55
2023-03-17T20:33:35.362Z,5.70
2023-03-17T20:36:37.401Z,4.72
2023-03-17T20:39:39.028Z,4.50
2023-03-17T20:42:41.517Z,3.40
2023-03-17T20:45:43.156Z,4.43
2023-03-17T20:48:47.716Z,5.03
2023-03-17T20:51:49.232Z,3.58
2023-03-17T20:54:51.161Z,6.40
2023-03-17T20:57:52.805Z,5.40
2023-03-17T21:00:54.746Z,5.00
2023-03-17T21:03:56.492Z,3.80
2023-03-17T21:06:58.170Z,3.97
2023-03-17T21:10:02.411Z,3.75
2023-03-17T21:13:03.979Z,3.28
2023-03-17T21:16:05.948Z,4.32
2023-03-17T21:19:11.766Z,3.50
2023-03-17T21:22:13.342Z,3.47
2023-03-17T21:25:14.915Z,3.88
2023-03-17T21:28:16.630Z,4.37
2023-03-17T21:31:18.251Z,3.72
2023-03-17T21:34:20.225Z,2.67
2023-03-17T21:37:21.910Z,3.47
2023-03-17T21:40:26.016Z,3.63
2023-03-17T21:43:28.926Z,2.90
2023-03-17T21:46:31.627Z,3.35
2023-03-17T21:49:33.279Z,5.00
2023-03-17T21:52:34.755Z,3.80
2023-03-17T21:55:36.278Z,3.97
2023-03-17T21:58:37.792Z,4.00
2023-03-17T22:01:39.610Z,4.90
2023-03-17T22:04:41.647Z,4.28
2023-03-17T22:07:43.765Z,3.65
2023-03-17T22:10:45.316Z,3.90
2023-03-17T22:13:47.128Z,2.93
2023-03-17T22:16:49.120Z,3.03
2023-03-17T22:19:52.272Z,1.80
2023-03-17T22:22:53.768Z,2.63
2023-03-17T22:25:56.637Z,2.27
2023-03-17T22:28:58.522Z,3.08
2023-03-17T22:32:01.366Z,2.25
2023-03-17T22:35:02.896Z,2.25
2023-03-17T22:38:05.055Z,2.70
2023-03-17T22:41:08.400Z,2.35
2023-03-17T22:44:10.253Z,4.50
2023-03-17T22:47:11.942Z,2.60
2023-03-17T22:50:13.443Z,3.58
2023-03-17T22:53:14.944Z,3.00
2023-03-17T22:56:16.974Z,2.00
2023-03-17T22:59:18.471Z,1.92
2023-03-17T23:02:19.929Z,1.57
2023-03-17T23:05:21.420Z,1.77
2023-03-17T23:08:22.873Z,2.22
2023-03-17T23:11:25.423Z,2.55
2023-03-17T23:17:28.577Z,2.45
2023-03-17T23:20:30.522Z,2.50
2023-03-17T23:23:32.756Z,2.33
2023-03-17T23:26:36.033Z,2.10
2023-03-17T23:29:37.835Z,2.10
2023-03-17T23:32:40.533Z,2.28
2023-03-17T23:35:42.136Z,1.85
2023-03-17T23:38:44.060Z,2.20
2023-03-17T23:41:45.529Z,1.70
2023-03-17T23:44:47.092Z,2.20
2023-03-17T23:47:49.099Z,1.47
2023-03-17T23:50:52.307Z,1.77
2023-03-17T23:53:54.340Z,1.65
2023-03-17T23:56:56.072Z,2.17
2023-03-17T23:59:58.023Z,2.35
